sensor_id;sensor_type;location;lat;lon;timestamp;pressure;altitude;pressure_sealevel;temperature;humidity
16525;BME280;8375;33.594;-117.718;2024-03-02T00:01:18;100566.28;;;17.63;60.72
16525;BME280;8375;33.594;-117.718;2024-03-02T00:03:47;100558.88;;;17.58;61.96
16525;BME280;8375;33.594;-117.718;2024-03-02T00:06:20;100558.81;;;17.50;62.60
16525;BME280;8375;33.594;-117.718;2024-03-02T00:08:51;100554.69;;;17.47;63.38
16525;BME280;8375;33.594;-117.718;2024-03-02T00:11:19;100558.41;;;17.36;64.40
16525;BME280;8375;33.594;-117.718;2024-03-02T00:13:48;100567.09;;;17.37;65.38
16525;BME280;8375;33.594;-117.718;2024-03-02T00:16:17;100571.72;;;17.43;65.29
16525;BME280;8375;33.594;-117.718;2024-03-02T00:18:46;100564.84;;;17.42;66.63
16525;BME280;8375;33.594;-117.718;2024-03-02T00:21:15;100562.25;;;17.24;66.09
16525;BME280;8375;33.594;-117.718;2024-03-02T00:23:47;100576.06;;;17.26;67.22
16525;BME280;8375;33.594;-117.718;2024-03-02T00:26:20;100569.78;;;17.19;66.80
16525;BME280;8375;33.594;-117.718;2024-03-02T00:28:49;100582.38;;;16.97;68.99
16525;BME280;8375;33.594;-117.718;2024-03-02T00:31:19;100576.66;;;17.01;69.15
16525;BME280;8375;33.594;-117.718;2024-03-02T00:33:48;100567.31;;;16.99;69.36
16525;BME280;8375;33.594;-117.718;2024-03-02T00:36:22;100574.88;;;17.02;70.17
16525;BME280;8375;33.594;-117.718;2024-03-02T00:38:54;100586.16;;;16.84;71.37
16525;BME280;8375;33.594;-117.718;2024-03-02T00:41:26;100577.47;;;16.84;72.74
16525;BME280;8375;33.594;-117.718;2024-03-02T00:43:59;100588.56;;;16.78;73.60
16525;BME280;8375;33.594;-117.718;2024-03-02T00:46:29;100589.53;;;16.77;74.72
16525;BME280;8375;33.594;-117.718;2024-03-02T00:48:59;100591.00;;;16.61;76.73
16525;BME280;8375;33.594;-117.718;2024-03-02T00:51:29;100593.13;;;16.57;76.57
16525;BME280;8375;33.594;-117.718;2024-03-02T00:53:59;100601.88;;;16.48;77.36
16525;BME280;8375;33.594;-117.718;2024-03-02T00:56:32;100602.09;;;16.27;77.24
16525;BME280;8375;33.594;-117.718;2024-03-02T00:59:01;100598.97;;;16.23;76.51
16525;BME280;8375;33.594;-117.718;2024-03-02T01:01:30;100607.63;;;16.24;77.10
16525;BME280;8375;33.594;-117.718;2024-03-02T01:03:59;100603.72;;;16.10;76.73
16525;BME280;8375;33.594;-117.718;2024-03-02T01:06:27;100605.34;;;16.11;78.79
16525;BME280;8375;33.594;-117.718;2024-03-02T01:08:56;100619.56;;;16.08;78.19
16525;BME280;8375;33.594;-117.718;2024-03-02T01:11:25;100613.00;;;15.94;79.25
16525;BME280;8375;33.594;-117.718;2024-03-02T01:13:55;100614.94;;;15.92;79.43
16525;BME280;8375;33.594;-117.718;2024-03-02T01:16:24;100616.56;;;15.83;80.06
16525;BME280;8375;33.594;-117.718;2024-03-02T01:18:53;100624.25;;;15.85;81.28
16525;BME280;8375;33.594;-117.718;2024-03-02T01:21:21;100618.22;;;15.75;79.99
16525;BME280;8375;33.594;-117.718;2024-03-02T01:23:50;100613.72;;;15.67;79.79
16525;BME280;8375;33.594;-117.718;2024-03-02T01:26:18;100612.63;;;15.50;80.94
16525;BME280;8375;33.594;-117.718;2024-03-02T01:28:47;100619.41;;;15.33;80.37
16525;BME280;8375;33.594;-117.718;2024-03-02T01:31:17;100614.88;;;15.25;81.59
16525;BME280;8375;33.594;-117.718;2024-03-02T01:33:46;100612.13;;;15.17;83.16
16525;BME280;8375;33.594;-117.718;2024-03-02T01:36:14;100613.91;;;15.06;85.09
16525;BME280;8375;33.594;-117.718;2024-03-02T01:38:43;100614.44;;;15.00;85.54
16525;BME280;8375;33.594;-117.718;2024-03-02T01:41:12;100622.44;;;15.08;84.66
16525;BME280;8375;33.594;-117.718;2024-03-02T01:43:40;100611.84;;;15.10;85.72
16525;BME280;8375;33.594;-117.718;2024-03-02T01:46:09;100604.81;;;15.10;85.77
16525;BME280;8375;33.594;-117.718;2024-03-02T01:48:39;100604.00;;;15.00;85.49
16525;BME280;8375;33.594;-117.718;2024-03-02T01:51:08;100606.88;;;14.97;87.35
16525;BME280;8375;33.594;-117.718;2024-03-02T01:53:37;100606.06;;;15.06;88.67
16525;BME280;8375;33.594;-117.718;2024-03-02T01:56:06;100608.97;;;15.13;87.35
16525;BME280;8375;33.594;-117.718;2024-03-02T01:58:35;100614.72;;;15.17;87.63
16525;BME280;8375;33.594;-117.718;2024-03-02T02:01:04;100608.53;;;15.18;89.10
16525;BME280;8375;33.594;-117.718;2024-03-02T02:03:32;100610.47;;;15.16;89.41
16525;BME280;8375;33.594;-117.718;2024-03-02T02:06:03;100608.41;;;15.09;88.09
16525;BME280;8375;33.594;-117.718;2024-03-02T02:08:32;100602.47;;;15.07;89.81
16525;BME280;8375;33.594;-117.718;2024-03-02T02:11:01;100602.50;;;14.98;89.45
16525;BME280;8375;33.594;-117.718;2024-03-02T02:13:30;100604.53;;;14.94;89.94
16525;BME280;8375;33.594;-117.718;2024-03-02T02:16:05;100612.53;;;14.92;91.17
16525;BME280;8375;33.594;-117.718;2024-03-02T02:18:34;100607.59;;;14.89;93.29
16525;BME280;8375;33.594;-117.718;2024-03-02T02:21:04;100607.59;;;14.89;93.79
16525;BME280;8375;33.594;-117.718;2024-03-02T02:23:35;100606.75;;;14.89;94.72
16525;BME280;8375;33.594;-117.718;2024-03-02T02:26:03;100611.28;;;14.87;94.73
16525;BME280;8375;33.594;-117.718;2024-03-02T02:28:32;100614.16;;;14.84;95.35
16525;BME280;8375;33.594;-117.718;2024-03-02T02:31:01;100613.09;;;14.86;94.54
16525;BME280;8375;33.594;-117.718;2024-03-02T02:33:29;100616.91;;;14.92;95.44
16525;BME280;8375;33.594;-117.718;2024-03-02T02:35:58;100621.31;;;14.81;95.48
16525;BME280;8375;33.594;-117.718;2024-03-02T02:38:27;100618.00;;;14.79;94.24
16525;BME280;8375;33.594;-117.718;2024-03-02T02:40:57;100616.63;;;14.75;94.94
16525;BME280;8375;33.594;-117.718;2024-03-02T02:43:25;100619.38;;;14.74;95.68
16525;BME280;8375;33.594;-117.718;2024-03-02T02:45:54;100614.44;;;14.71;95.21
16525;BME280;8375;33.594;-117.718;2024-03-02T02:48:22;100613.84;;;14.67;94.42
16525;BME280;8375;33.594;-117.718;2024-03-02T02:50:51;100621.66;;;14.57;94.69
16525;BME280;8375;33.594;-117.718;2024-03-02T02:53:20;100618.78;;;14.60;96.35
16525;BME280;8375;33.594;-117.718;2024-03-02T02:55:48;100622.22;;;14.61;96.51
16525;BME280;8375;33.594;-117.718;2024-03-02T02:58:19;100624.00;;;14.60;96.98
16525;BME280;8375;33.594;-117.718;2024-03-02T03:00:47;100616.97;;;14.61;96.63
16525;BME280;8375;33.594;-117.718;2024-03-02T03:03:16;100622.47;;;14.58;96.03
16525;BME280;8375;33.594;-117.718;2024-03-02T03:05:45;100616.56;;;14.56;97.29
16525;BME280;8375;33.594;-117.718;2024-03-02T03:08:13;100622.22;;;14.61;98.77
16525;BME280;8375;33.594;-117.718;2024-03-02T03:10:42;100628.66;;;14.57;95.80
16525;BME280;8375;33.594;-117.718;2024-03-02T03:13:11;100627.28;;;14.52;96.69
16525;BME280;8375;33.594;-117.718;2024-03-02T03:15:41;100628.50;;;14.48;96.83
16525;BME280;8375;33.594;-117.718;2024-03-02T03:18:10;100635.63;;;14.46;98.55
16525;BME280;8375;33.594;-117.718;2024-03-02T03:20:39;100635.78;;;14.45;97.53
16525;BME280;8375;33.594;-117.718;2024-03-02T03:23:07;100631.53;;;14.44;98.33
16525;BME280;8375;33.594;-117.718;2024-03-02T03:25:36;100636.88;;;14.42;99.38
16525;BME280;8375;33.594;-117.718;2024-03-02T03:28:05;100639.38;;;14.44;99.06
16525;BME280;8375;33.594;-117.718;2024-03-02T03:30:33;100641.13;;;14.43;98.87
16525;BME280;8375;33.594;-117.718;2024-03-02T03:33:04;100644.00;;;14.40;100.00
16525;BME280;8375;33.594;-117.718;2024-03-02T03:35:33;100640.44;;;14.41;100.00
16525;BME280;8375;33.594;-117.718;2024-03-02T03:38:02;100644.84;;;14.41;99.33
16525;BME280;8375;33.594;-117.718;2024-03-02T03:40:30;100650.75;;;14.43;99.83
16525;BME280;8375;33.594;-117.718;2024-03-02T03:42:59;100654.19;;;14.43;99.69
16525;BME280;8375;33.594;-117.718;2024-03-02T03:45:28;100656.81;;;14.43;99.54
16525;BME280;8375;33.594;-117.718;2024-03-02T03:47:56;100659.56;;;14.42;98.75
16525;BME280;8375;33.594;-117.718;2024-03-02T03:50:27;100660.53;;;14.41;98.95
16525;BME280;8375;33.594;-117.718;2024-03-02T03:52:55;100658.88;;;14.40;99.80
16525;BME280;8375;33.594;-117.718;2024-03-02T03:55:24;100653.50;;;14.41;99.37
16525;BME280;8375;33.594;-117.718;2024-03-02T03:57:53;100655.84;;;14.44;99.30
16525;BME280;8375;33.594;-117.718;2024-03-02T04:00:20;100651.72;;;14.42;99.64
16525;BME280;8375;33.594;-117.718;2024-03-02T04:02:49;100652.81;;;14.39;99.59
16525;BME280;8375;33.594;-117.718;2024-03-02T04:05:17;100653.50;;;14.41;100.00
16525;BME280;8375;33.594;-117.718;2024-03-02T04:07:48;100651.56;;;14.33;99.43
16525;BME280;8375;33.594;-117.718;2024-03-02T04:10:16;100654.88;;;14.35;100.00
16525;BME280;8375;33.594;-117.718;2024-03-02T04:12:47;100651.41;;;14.35;100.00
16525;BME280;8375;33.594;-117.718;2024-03-02T04:15:19;100641.91;;;14.34;100.00
16525;BME280;8375;33.594;-117.718;2024-03-02T04:17:49;100638.75;;;14.30;100.00
16525;BME280;8375;33.594;-117.718;2024-03-02T04:20:18;100637.38;;;14.26;100.00
16525;BME280;8375;33.594;-117.718;2024-03-02T04:22:49;100641.06;;;14.23;100.00
16525;BME280;8375;33.594;-117.718;2024-03-02T04:25:18;100636.69;;;14.34;100.00
16525;BME280;8375;33.594;-117.718;2024-03-02T04:27:47;100625.28;;;14.35;100.00
16525;BME280;8375;33.594;-117.718;2024-03-02T04:30:16;100628.06;;;14.33;100.00
16525;BME280;8375;33.594;-117.718;2024-03-02T04:32:44;100624.06;;;14.39;100.00
16525;BME280;8375;33.594;-117.718;2024-03-02T04:35:14;100628.06;;;14.33;100.00
16525;BME280;8375;33.594;-117.718;2024-03-02T04:37:42;100632.69;;;14.30;100.00
16525;BME280;8375;33.594;-117.718;2024-03-02T04:40:13;100629.97;;;14.31;100.00
16525;BME280;8375;33.594;-117.718;2024-03-02T04:42:42;100628.16;;;14.32;100.00
16525;BME280;8375;33.594;-117.718;2024-03-02T04:45:11;100633.13;;;14.35;100.00
16525;BME280;8375;33.594;-117.718;2024-03-02T04:47:39;100637.91;;;14.30;100.00
16525;BME280;8375;33.594;-117.718;2024-03-02T04:50:08;100634.09;;;14.34;100.00
16525;BME280;8375;33.594;-117.718;2024-03-02T04:52:37;100633.53;;;14.30;100.00
16525;BME280;8375;33.594;-117.718;2024-03-02T04:55:06;100636.28;;;14.29;100.00
16525;BME280;8375;33.594;-117.718;2024-03-02T04:57:51;100630.50;;;14.25;100.00
16525;BME280;8375;33.594;-117.718;2024-03-02T05:00:21;100635.03;;;14.33;100.00
16525;BME280;8375;33.594;-117.718;2024-03-02T05:02:49;100637.91;;;14.30;100.00
16525;BME280;8375;33.594;-117.718;2024-03-02T05:05:18;100644.09;;;14.29;100.00
16525;BME280;8375;33.594;-117.718;2024-03-02T05:07:47;100645.22;;;14.26;100.00
16525;BME280;8375;33.594;-117.718;2024-03-02T05:10:16;100646.72;;;14.29;100.00
16525;BME280;8375;33.594;-117.718;2024-03-02T05:12:44;100650.28;;;14.28;100.00
16525;BME280;8375;33.594;-117.718;2024-03-02T05:15:25;100654.00;;;14.25;100.00
16525;BME280;8375;33.594;-117.718;2024-03-02T05:17:53;100654.00;;;14.25;100.00
16525;BME280;8375;33.594;-117.718;2024-03-02T05:20:23;100648.47;;;14.18;100.00
16525;BME280;8375;33.594;-117.718;2024-03-02T05:22:52;100646.81;;;14.17;100.00
16525;BME280;8375;33.594;-117.718;2024-03-02T05:25:20;100659.16;;;14.15;100.00
16525;BME280;8375;33.594;-117.718;2024-03-02T05:27:49;100655.84;;;14.13;100.00
16525;BME280;8375;33.594;-117.718;2024-03-02T05:30:17;100669.16;;;14.10;100.00
16525;BME280;8375;33.594;-117.718;2024-03-02T05:32:48;100664.19;;;14.07;100.00
16525;BME280;8375;33.594;-117.718;2024-03-02T05:35:16;100669.56;;;14.05;100.00
16525;BME280;8375;33.594;-117.718;2024-03-02T05:37:45;100675.22;;;14.11;100.00
16525;BME280;8375;33.594;-117.718;2024-03-02T05:40:14;100665.84;;;14.08;100.00
16525;BME280;8375;33.594;-117.718;2024-03-02T05:42:42;100659.38;;;14.02;100.00
16525;BME280;8375;33.594;-117.718;2024-03-02T05:45:11;100660.09;;;14.04;100.00
16525;BME280;8375;33.594;-117.718;2024-03-02T05:47:40;100659.94;;;14.06;100.00
16525;BME280;8375;33.594;-117.718;2024-03-02T05:50:10;100660.91;;;14.05;100.00
16525;BME280;8375;33.594;-117.718;2024-03-02T05:52:39;100653.91;;;14.05;100.00
16525;BME280;8375;33.594;-117.718;2024-03-02T05:55:08;100646.63;;;14.09;100.00
16525;BME280;8375;33.594;-117.718;2024-03-02T05:57:36;100640.97;;;14.04;100.00
16525;BME280;8375;33.594;-117.718;2024-03-02T06:00:21;100641.66;;;14.06;100.00
16525;BME280;8375;33.594;-117.718;2024-03-02T06:02:53;100627.91;;;14.04;100.00
16525;BME280;8375;33.594;-117.718;2024-03-02T06:05:24;100633.97;;;14.04;100.00
16525;BME280;8375;33.594;-117.718;2024-03-02T06:07:52;100634.09;;;14.03;100.00
16525;BME280;8375;33.594;-117.718;2024-03-02T06:10:21;100629.84;;;14.02;100.00
16525;BME280;8375;33.594;-117.718;2024-03-02T06:12:50;100632.44;;;14.02;100.00
16525;BME280;8375;33.594;-117.718;2024-03-02T06:15:18;100634.09;;;14.03;100.00
16525;BME280;8375;33.594;-117.718;2024-03-02T06:17:47;100630.78;;;14.01;100.00
16525;BME280;8375;33.594;-117.718;2024-03-02T06:20:15;100628.31;;;13.99;100.00
16525;BME280;8375;33.594;-117.718;2024-03-02T06:22:46;100632.44;;;14.02;100.00
16525;BME280;8375;33.594;-117.718;2024-03-02T06:25:14;100630.25;;;13.97;100.00
16525;BME280;8375;33.594;-117.718;2024-03-02T06:27:43;100634.09;;;14.03;100.00
16525;BME280;8375;33.594;-117.718;2024-03-02T06:30:12;100628.44;;;13.98;100.00
16525;BME280;8375;33.594;-117.718;2024-03-02T06:32:41;100632.00;;;13.97;100.00
16525;BME280;8375;33.594;-117.718;2024-03-02T06:35:10;100628.69;;;13.94;100.00
16525;BME280;8375;33.594;-117.718;2024-03-02T06:37:41;100627.19;;;13.92;100.00
16525;BME280;8375;33.594;-117.718;2024-03-02T06:40:11;100627.31;;;13.90;100.00
16525;BME280;8375;33.594;-117.718;2024-03-02T06:42:40;100629.22;;;13.88;100.00
16525;BME280;8375;33.594;-117.718;2024-03-02T06:45:09;100633.47;;;13.89;100.00
16525;BME280;8375;33.594;-117.718;2024-03-02T06:47:37;100636.09;;;13.89;100.00
16525;BME280;8375;33.594;-117.718;2024-03-02T06:50:06;100634.44;;;13.88;100.00
16525;BME280;8375;33.594;-117.718;2024-03-02T06:52:35;100624.25;;;13.85;100.00
16525;BME280;8375;33.594;-117.718;2024-03-02T06:55:06;100624.50;;;13.82;100.00
16525;BME280;8375;33.594;-117.718;2024-03-02T06:57:36;100623.97;;;13.78;100.00
16525;BME280;8375;33.594;-117.718;2024-03-02T07:00:05;100622.06;;;13.81;100.00
16525;BME280;8375;33.594;-117.718;2024-03-02T07:02:35;100625.47;;;13.81;100.00
16525;BME280;8375;33.594;-117.718;2024-03-02T07:05:04;100621.97;;;13.71;100.00
16525;BME280;8375;33.594;-117.718;2024-03-02T07:07:33;100616.50;;;13.74;100.00
16525;BME280;8375;33.594;-117.718;2024-03-02T07:10:03;100621.97;;;13.71;100.00
16525;BME280;8375;33.594;-117.718;2024-03-02T07:12:32;100624.31;;;13.74;100.00
16525;BME280;8375;33.594;-117.718;2024-03-02T07:15:02;100613.44;;;13.69;100.00
16525;BME280;8375;33.594;-117.718;2024-03-02T07:17:56;100599.72;;;13.67;100.00
16525;BME280;8375;33.594;-117.718;2024-03-02T07:20:25;100598.06;;;13.66;100.00
16525;BME280;8375;33.594;-117.718;2024-03-02T07:22:53;100595.06;;;13.70;100.00
16525;BME280;8375;33.594;-117.718;2024-03-02T07:25:22;100604.94;;;13.67;100.00
16525;BME280;8375;33.594;-117.718;2024-03-02T07:27:51;100603.53;;;13.62;100.00
16525;BME280;8375;33.594;-117.718;2024-03-02T07:30:22;100602.56;;;13.63;100.00
16525;BME280;8375;33.594;-117.718;2024-03-02T07:32:51;100607.69;;;13.65;100.00
16525;BME280;8375;33.594;-117.718;2024-03-02T07:35:20;100607.69;;;13.65;100.00
16525;BME280;8375;33.594;-117.718;2024-03-02T07:37:48;100604.22;;;13.64;100.00
16525;BME280;8375;33.594;-117.718;2024-03-02T07:40:17;100609.59;;;13.63;100.00
16525;BME280;8375;33.594;-117.718;2024-03-02T07:42:46;100595.53;;;13.54;100.00
16525;BME280;8375;33.594;-117.718;2024-03-02T07:45:15;100591.94;;;13.55;100.00
16525;BME280;8375;33.594;-117.718;2024-03-02T07:47:46;100586.88;;;13.54;100.00
16525;BME280;8375;33.594;-117.718;2024-03-02T07:50:16;100582.47;;;13.54;100.00
16525;BME280;8375;33.594;-117.718;2024-03-02T07:52:48;100586.63;;;13.57;100.00
16525;BME280;8375;33.594;-117.718;2024-03-02T07:55:17;100587.31;;;13.59;100.00
16525;BME280;8375;33.594;-117.718;2024-03-02T07:57:45;100586.47;;;13.58;100.00
16525;BME280;8375;33.594;-117.718;2024-03-02T08:00:17;100580.31;;;13.59;100.00
16525;BME280;8375;33.594;-117.718;2024-03-02T08:02:47;100588.72;;;13.63;100.00
16525;BME280;8375;33.594;-117.718;2024-03-02T08:05:17;100589.94;;;13.59;100.00
16525;BME280;8375;33.594;-117.718;2024-03-02T08:07:46;100588.97;;;13.60;100.00
16525;BME280;8375;33.594;-117.718;2024-03-02T08:10:19;100584.38;;;13.52;100.00
16525;BME280;8375;33.594;-117.718;2024-03-02T08:12:50;100589.50;;;13.54;100.00
16525;BME280;8375;33.594;-117.718;2024-03-02T08:15:22;100584.38;;;13.52;100.00
16525;BME280;8375;33.594;-117.718;2024-03-02T08:17:52;100588.38;;;13.56;100.00
16525;BME280;8375;33.594;-117.718;2024-03-02T08:20:22;100584.56;;;13.60;100.00
16525;BME280;8375;33.594;-117.718;2024-03-02T08:22:55;100586.28;;;13.50;100.00
16525;BME280;8375;33.594;-117.718;2024-03-02T08:25:25;100590.13;;;13.46;100.00
16525;BME280;8375;33.594;-117.718;2024-03-02T08:27:54;100585.47;;;13.49;100.00
16525;BME280;8375;33.594;-117.718;2024-03-02T08:30:23;100584.78;;;13.47;100.00
16525;BME280;8375;33.594;-117.718;2024-03-02T08:32:53;100589.84;;;13.49;100.00
16525;BME280;8375;33.594;-117.718;2024-03-02T08:35:22;100585.47;;;13.49;100.00
16525;BME280;8375;33.594;-117.718;2024-03-02T08:37:51;100576.97;;;13.47;100.00
16525;BME280;8375;33.594;-117.718;2024-03-02T08:40:19;100583.44;;;13.53;100.00
16525;BME280;8375;33.594;-117.718;2024-03-02T08:42:48;100581.22;;;13.48;100.00
16525;BME280;8375;33.594;-117.718;2024-03-02T08:45:17;100572.81;;;13.45;100.00
16525;BME280;8375;33.594;-117.718;2024-03-02T08:48:11;100574.72;;;13.43;100.00
16525;BME280;8375;33.594;-117.718;2024-03-02T08:50:39;100578.16;;;13.43;100.00
16525;BME280;8375;33.594;-117.718;2024-03-02T08:53:08;100582.22;;;13.36;100.00
16525;BME280;8375;33.594;-117.718;2024-03-02T08:55:38;100565.47;;;13.39;100.00
16525;BME280;8375;33.594;-117.718;2024-03-02T08:58:06;100569.28;;;13.34;100.00
16525;BME280;8375;33.594;-117.718;2024-03-02T09:00:36;100559.09;;;13.31;100.00
16525;BME280;8375;33.594;-117.718;2024-03-02T09:03:05;100559.81;;;13.33;100.00
16525;BME280;8375;33.594;-117.718;2024-03-02T09:05:35;100564.31;;;13.31;100.00
16525;BME280;8375;33.594;-117.718;2024-03-02T09:08:05;100557.19;;;13.33;100.00
16525;BME280;8375;33.594;-117.718;2024-03-02T09:10:33;100558.03;;;13.34;100.00
16525;BME280;8375;33.594;-117.718;2024-03-02T09:13:05;100558.84;;;13.34;100.00
16525;BME280;8375;33.594;-117.718;2024-03-02T09:15:34;100556.25;;;13.34;100.00
16525;BME280;8375;33.594;-117.718;2024-03-02T09:18:06;100554.72;;;13.32;100.00
16525;BME280;8375;33.594;-117.718;2024-03-02T09:20:39;100552.13;;;13.32;100.00
16525;BME280;8375;33.594;-117.718;2024-03-02T09:23:08;100552.50;;;13.27;100.00
16525;BME280;8375;33.594;-117.718;2024-03-02T09:25:36;100540.16;;;13.29;100.00
16525;BME280;8375;33.594;-117.718;2024-03-02T09:28:05;100542.75;;;13.29;100.00
16525;BME280;8375;33.594;-117.718;2024-03-02T09:30:34;100533.19;;;13.30;100.00
16525;BME280;8375;33.594;-117.718;2024-03-02T09:33:04;100525.63;;;13.27;100.00
16525;BME280;8375;33.594;-117.718;2024-03-02T09:35:33;100531.19;;;13.22;100.00
16525;BME280;8375;33.594;-117.718;2024-03-02T09:38:03;100522.78;;;13.18;100.00
16525;BME280;8375;33.594;-117.718;2024-03-02T09:40:32;100519.81;;;13.23;100.00
16525;BME280;8375;33.594;-117.718;2024-03-02T09:43:01;100512.00;;;13.23;100.00
16525;BME280;8375;33.594;-117.718;2024-03-02T09:45:31;100509.06;;;13.16;100.00
16525;BME280;8375;33.594;-117.718;2024-03-02T09:48:00;100502.78;;;13.19;100.00
16525;BME280;8375;33.594;-117.718;2024-03-02T09:50:28;100492.28;;;13.09;100.00
16525;BME280;8375;33.594;-117.718;2024-03-02T09:52:57;100495.72;;;13.10;100.00
16525;BME280;8375;33.594;-117.718;2024-03-02T09:55:29;100502.44;;;13.12;100.00
16525;BME280;8375;33.594;-117.718;2024-03-02T09:57:57;100495.06;;;13.17;100.00
16525;BME280;8375;33.594;-117.718;2024-03-02T10:00:28;100493.22;;;13.08;100.00
16525;BME280;8375;33.594;-117.718;2024-03-02T10:02:56;100487.91;;;13.10;100.00
16525;BME280;8375;33.594;-117.718;2024-03-02T10:05:26;100485.41;;;13.08;100.00
16525;BME280;8375;33.594;-117.718;2024-03-02T10:08:02;100481.03;;;13.09;100.00
16525;BME280;8375;33.594;-117.718;2024-03-02T10:10:40;100479.00;;;13.12;100.00
16525;BME280;8375;33.594;-117.718;2024-03-02T10:13:10;100475.31;;;13.15;100.00
16525;BME280;8375;33.594;-117.718;2024-03-02T10:15:40;100463.34;;;13.12;100.00
16525;BME280;8375;33.594;-117.718;2024-03-02T10:18:10;100458.13;;;13.12;100.00
16525;BME280;8375;33.594;-117.718;2024-03-02T10:20:40;100458.13;;;13.12;100.00
16525;BME280;8375;33.594;-117.718;2024-03-02T10:23:12;100451.28;;;13.11;100.00
16525;BME280;8375;33.594;-117.718;2024-03-02T10:25:43;100454.28;;;13.06;100.00
16525;BME280;8375;33.594;-117.718;2024-03-02T10:28:12;100449.84;;;12.97;100.00
16525;BME280;8375;33.594;-117.718;2024-03-02T10:30:40;100453.59;;;13.04;100.00
16525;BME280;8375;33.594;-117.718;2024-03-02T10:33:09;100447.16;;;13.09;100.00
16525;BME280;8375;33.594;-117.718;2024-03-02T10:35:39;100443.84;;;13.06;100.00
16525;BME280;8375;33.594;-117.718;2024-03-02T10:38:07;100440.66;;;13.03;100.00
16525;BME280;8375;33.594;-117.718;2024-03-02T10:40:39;100428.47;;;13.03;100.00
16525;BME280;8375;33.594;-117.718;2024-03-02T10:43:10;100422.44;;;12.82;100.00
16525;BME280;8375;33.594;-117.718;2024-03-02T10:45:40;100414.50;;;12.83;100.00
16525;BME280;8375;33.594;-117.718;2024-03-02T10:48:09;100403.81;;;12.86;100.00
16525;BME280;8375;33.594;-117.718;2024-03-02T10:50:38;100404.66;;;12.87;100.00
16525;BME280;8375;33.594;-117.718;2024-03-02T10:53:06;100403.00;;;12.86;100.00
16525;BME280;8375;33.594;-117.718;2024-03-02T10:55:35;100403.69;;;12.88;100.00
16525;BME280;8375;33.594;-117.718;2024-03-02T10:58:05;100402.59;;;12.90;100.00
16525;BME280;8375;33.594;-117.718;2024-03-02T11:00:38;100397.84;;;12.96;100.00
16525;BME280;8375;33.594;-117.718;2024-03-02T11:03:11;100390.59;;;12.99;100.00
16525;BME280;8375;33.594;-117.718;2024-03-02T11:05:44;100400.69;;;12.93;100.00
16525;BME280;8375;33.594;-117.718;2024-03-02T11:08:18;100392.38;;;12.99;100.00
16525;BME280;8375;33.594;-117.718;2024-03-02T11:10:51;100391.81;;;12.95;100.00
16525;BME280;8375;33.594;-117.718;2024-03-02T11:13:24;100386.59;;;12.95;100.00
16525;BME280;8375;33.594;-117.718;2024-03-02T11:16:02;100381.13;;;12.98;100.00
16525;BME280;8375;33.594;-117.718;2024-03-02T11:18:32;100381.94;;;12.99;100.00
16525;BME280;8375;33.594;-117.718;2024-03-02T11:21:03;100369.59;;;13.01;100.00
16525;BME280;8375;33.594;-117.718;2024-03-02T11:23:33;100363.69;;;12.99;100.00
16525;BME280;8375;33.594;-117.718;2024-03-02T11:26:19;100362.19;;;12.96;100.00
16525;BME280;8375;33.594;-117.718;2024-03-02T11:28:49;100363.16;;;12.95;100.00
16525;BME280;8375;33.594;-117.718;2024-03-02T11:31:19;100354.94;;;13.00;100.00
16525;BME280;8375;33.594;-117.718;2024-03-02T11:33:47;100357.00;;;13.06;100.00
16525;BME280;8375;33.594;-117.718;2024-03-02T11:36:16;100356.97;;;12.96;100.00
16525;BME280;8375;33.594;-117.718;2024-03-02T11:38:45;100355.34;;;12.95;100.00
16525;BME280;8375;33.594;-117.718;2024-03-02T11:41:14;100361.63;;;12.93;100.00
16525;BME280;8375;33.594;-117.718;2024-03-02T11:43:43;100357.69;;;12.98;100.00
16525;BME280;8375;33.594;-117.718;2024-03-02T11:46:12;100359.44;;;12.98;100.00
16525;BME280;8375;33.594;-117.718;2024-03-02T11:48:42;100353.97;;;13.01;100.00
16525;BME280;8375;33.594;-117.718;2024-03-02T11:53:47;100363.31;;;13.03;100.00
16525;BME280;8375;33.594;-117.718;2024-03-02T11:56:17;100357.16;;;13.04;100.00
16525;BME280;8375;33.594;-117.718;2024-03-02T11:58:47;100357.00;;;13.06;100.00
16525;BME280;8375;33.594;-117.718;2024-03-02T12:01:18;100359.75;;;13.04;100.00
16525;BME280;8375;33.594;-117.718;2024-03-02T12:03:49;100361.25;;;12.97;100.00
16525;BME280;8375;33.594;-117.718;2024-03-02T12:06:19;100354.81;;;13.01;100.00
16525;BME280;8375;33.594;-117.718;2024-03-02T12:08:52;100348.22;;;12.97;100.00
16525;BME280;8375;33.594;-117.718;2024-03-02T12:11:21;100351.78;;;12.96;100.00
16525;BME280;8375;33.594;-117.718;2024-03-02T12:13:53;100350.81;;;12.97;100.00
16525;BME280;8375;33.594;-117.718;2024-03-02T12:16:24;100357.50;;;12.90;100.00
16525;BME280;8375;33.594;-117.718;2024-03-02T12:18:55;100357.25;;;12.93;100.00
16525;BME280;8375;33.594;-117.718;2024-03-02T12:21:23;100357.25;;;12.93;100.00
16525;BME280;8375;33.594;-117.718;2024-03-02T12:23:52;100358.75;;;12.96;100.00
16525;BME280;8375;33.594;-117.718;2024-03-02T12:26:22;100362.19;;;12.96;100.00
16525;BME280;8375;33.594;-117.718;2024-03-02T12:28:51;100359.97;;;12.91;100.00
16525;BME280;8375;33.594;-117.718;2024-03-02T12:31:20;100355.59;;;12.92;100.00
16525;BME280;8375;33.594;-117.718;2024-03-02T12:33:49;100349.44;;;12.93;100.00
16525;BME280;8375;33.594;-117.718;2024-03-02T12:36:19;100343.78;;;12.88;100.00
16525;BME280;8375;33.594;-117.718;2024-03-02T12:38:48;100342.13;;;12.87;100.00